Latest Coastal Weather Observations for South Johnstone

IDQ60701

Issued at 10:31 pm EST Sunday 14 February 2016 (issued every 10 minutes, with the page automatically refreshed every 10 minutes)

About coastal observations | Map of coastal stations | Coastal observations for QLD | Marine services | Other Formats
Station Details ID: 032037 Name: SOUTH JOHNSTONE EXP STN Lat: -17.61 Lon: 146.00 Height: 18.3 m
Data from the previous 72 hours. | See also: Recent months at South Johnstone
Date/Time
EST
Temp

°C
Wind Pressure Rain
since 9am
mm
Weather Cloud Vis
km
Sea
Height
m
Swell
Dir
 
Speed
knots
Gust
knots
hPa Trend Height
m
Period
s
Dir
14/10:30pm 22.5 W 3 5 1010.2 - 0.0 - - - - - - -
14/10:00pm 22.7 W 3 5 1010.1 - 0.0 - - - - - - -
14/09:30pm 23.2 WNW 4 5 1009.8 - 0.0 - - - - - - -
14/09:00pm 23.6 W 4 6 1009.5 - 0.0 - - - - - - -
14/08:30pm 24.0 W 1 5 1009.2 - 0.0 - - - - - - -
14/08:00pm 25.2 W 1 5 1008.6 - 0.0 - - - - - - -
14/07:30pm 25.8 SE 1 4 1008.1 - 0.0 - - - - - - -
14/07:00pm 26.9 CALM 0 0 1007.5 - 0.0 - - - - - - -
14/06:30pm 28.7 ESE 2 4 1007.0 - 0.0 - - - - - - -
14/06:00pm 30.0 E 4 5 1006.5 - 0.0 - - - - - - -
14/05:30pm 30.8 ENE 6 8 1006.1 - 0.0 - - - - - - -
14/05:00pm 31.4 NE 6 9 1005.8 - 0.0 - - - - - - -
14/04:30pm 32.3 NE 6 9 1005.6 - 0.0 - - - - - - -
14/04:00pm 32.0 NE 7 10 1005.4 - 0.0 - - - - - - -
14/03:30pm 32.9 NE 7 11 1005.4 - 0.0 - - - - - - -
14/03:00pm 33.0 ENE 7 11 1005.5 - 0.0 - - - - - - -
14/02:30pm 34.7 SE 7 11 1005.9 - 0.0 - - - - - - -
14/02:00pm 34.4 ESE 6 11 1006.0 - 0.0 - - - - - - -
14/01:30pm 34.4 SE 5 10 1006.4 - 0.0 - - - - - - -
14/01:00pm 33.6 E 2 8 1006.7 - 0.0 - - - - - - -
14/12:30pm 33.1 CALM 0 3 1007.1 - 0.0 - - - - - - -
14/12:00pm 32.5 NNE 3 7 1007.5 - 0.0 - - - - - - -
14/11:30am 32.0 ENE 2 6 1008.0 - 0.0 - - - - - - -
14/11:00am 31.3 NNE 1 6 1008.4 - 0.0 - - - - - - -
14/10:30am 30.6 N 2 5 1008.7 - 0.0 - - - - - - -
14/10:00am 29.5 NNE 1 5 1009.0 - 0.0 - - - - - - -
14/09:30am 28.0 WSW 1 4 1009.2 - 0.0 - - - - - - -
14/09:00am 26.3 CALM 0 1 1009.1 - 0.0 - - - - - - -
14/08:30am 24.0 WNW 2 5 1009.3 - 0.0 - - - - - - -
14/08:00am 22.3 WNW 1 5 1009.3 - 0.0 - - - - - - -
14/07:30am 20.4 WNW 2 5 1009.1 - 0.0 - - - - - - -
14/07:00am 19.1 W 2 4 1008.9 - 0.0 - - - - - - -
14/06:30am 18.5 WNW 3 5 1008.5 - 0.0 - - - - - - -
14/06:00am 18.6 WNW 3 6 1008.2 - 0.0 - - - - - - -
14/05:30am 18.5 CALM 0 4 1008.0 - 0.0 - - - - - - -
14/05:00am 19.1 NNW 1 6 1007.7 - 0.0 - - - - - - -
14/04:30am 19.0 CALM 0 3 1007.6 - 0.0 - - - - - - -
14/04:00am 19.3 CALM 0 3 1007.7 - 0.0 - - - - - - -
14/03:30am 19.4 WNW 1 5 1007.6 - 0.0 - - - - - - -
14/03:00am 19.6 CALM 0 3 1007.6 - 0.0 - - - - - - -
14/02:30am 20.0 CALM 0 0 1007.8 - 0.0 - - - - - - -
14/02:00am 20.3 CALM 0 4 1007.9 - 0.0 - - - - - - -
14/01:30am 20.6 CALM 0 3 1008.1 - 0.0 - - - - - - -
14/01:00am 20.9 CALM 0 0 1008.5 - 0.0 - - - - - - -
14/12:30am 21.0 NNW 1 7 1008.8 - 0.0 - - - - - - -
14/12:00am 21.5 CALM 0 3 1008.7 - 0.0 - - - - - - -
 
Date/Time
EST
Temp

°C
Wind Pressure Rain
since 9am
mm
Weather Cloud Vis
km
Sea
Height
m
Swell
Dir
 
Speed
knots
Gust
knots
hPa Trend Height
m
Period
s
Dir
13/11:30pm 21.7 CALM 0 0 1009.1 - 0.0 - - - - - - -
13/11:00pm 22.0 WSW 5 8 1009.3 - 0.0 - - - - - - -
13/10:30pm 22.2 W 3 5 1009.4 - 0.0 - - - - - - -
13/10:00pm 22.7 CALM 0 0 1009.4 - 0.0 - - - - - - -
13/09:30pm 23.0 CALM 0 1 1009.1 - 0.0 - - - - - - -
13/09:00pm 23.4 CALM 0 0 1008.7 - 0.0 - - - - - - -
13/08:30pm 23.9 W 1 4 1008.5 - 0.0 - - - - - - -
13/08:00pm 24.5 WSW 1 4 1008.4 - 0.0 - - - - - - -
13/07:30pm 25.4 CALM 0 0 1007.9 - 0.0 - - - - - - -
13/07:00pm 27.1 CALM 0 0 1007.7 - 0.0 - - - - - - -
13/06:30pm 28.1 SSE 1 4 1007.4 - 0.0 - - - - - - -
13/06:00pm 29.5 S 3 4 1007.2 - 0.0 - - - - - - -
13/05:30pm 30.4 SE 6 8 1006.9 - 0.0 - - - - - - -
13/05:00pm 30.9 SE 6 9 1006.6 - 0.0 - - - - - - -
13/04:30pm 31.2 SE 8 11 1006.5 - 0.0 - - - - - - -
13/04:00pm 31.6 ESE 8 13 1006.3 - 0.0 - - - - - - -
13/03:30pm 31.9 SE 8 13 1006.4 - 0.0 - - - - - - -
13/03:00pm 31.8 ESE 8 11 1006.3 - 0.0 - - - - - - -
13/02:30pm 32.1 SE 7 12 1006.8 - 0.0 - - - - - - -
13/02:00pm 31.9 SE 7 13 1006.8 - 0.0 - - - - - - -
13/01:30pm 31.7 E 7 11 1007.1 - 0.0 - - - - - - -
13/01:00pm 31.8 ESE 7 12 1007.5 - 0.0 - - - - - - -
13/12:30pm 32.0 SE 6 10 1007.9 - 0.0 - - - - - - -
13/12:00pm 31.4 ESE 6 9 1008.2 - 0.0 - - - - - - -
13/11:30am 30.9 E 5 10 1008.6 - 0.0 - - - - - - -
13/11:00am 31.3 SSE 4 7 1008.9 - 0.0 - - - - - - -
13/10:30am 31.2 ESE 5 7 1009.0 - 0.0 - - - - - - -
13/10:00am 30.4 NNE 2 4 1009.3 - 0.0 - - - - - - -
13/09:30am 29.1 SW 1 4 1009.5 - 0.0 - - - - - - -
13/09:00am 28.0 SW 1 4 1009.5 - 0.0 - - - - - - -
13/08:30am 26.7 W 3 5 1009.6 - 0.0 - - - - - - -
13/08:00am 24.7 W 1 4 1009.6 - 0.0 - - - - - - -
13/07:30am 23.0 WNW 1 4 1009.4 - 0.0 - - - - - - -
13/07:00am 21.7 W 3 5 1008.9 - 0.0 - - - - - - -
13/06:30am 20.9 WNW 1 5 1008.7 - 0.0 - - - - - - -
13/06:00am 20.7 W 3 7 1008.2 - 0.0 - - - - - - -
13/05:30am 20.7 W 3 5 1008.1 - 0.0 - - - - - - -
13/05:00am 20.8 WNW 3 5 1007.9 - 0.0 - - - - - - -
13/04:30am 20.9 WNW 3 4 1007.8 - 0.0 - - - - - - -
13/04:00am 21.0 WNW 3 5 1007.6 - 0.0 - - - - - - -
13/03:30am 21.0 CALM 0 3 1007.6 - 0.0 - - - - - - -
13/03:00am 21.1 CALM 0 3 1007.5 - 0.0 - - - - - - -
13/02:30am 21.4 NW 1 5 1007.8 - 0.0 - - - - - - -
13/02:00am 21.4 CALM 0 3 1008.0 - 0.0 - - - - - - -
13/01:30am 21.7 W 2 5 1008.3 - 0.0 - - - - - - -
13/01:00am 21.9 WNW 1 4 1008.6 - 0.0 - - - - - - -
13/12:30am 22.4 W 1 3 1008.9 - 0.0 - - - - - - -
13/12:00am 22.3 CALM 0 3 1009.2 - 0.0 - - - - - - -
 
Date/Time
EST
Temp

°C
Wind Pressure Rain
since 9am
mm
Weather Cloud Vis
km
Sea
Height
m
Swell
Dir
 
Speed
knots
Gust
knots
hPa Trend Height
m
Period
s
Dir
12/11:30pm 22.5 CALM 0 0 1009.6 - 0.0 - - - - - - -
12/11:00pm 22.8 CALM 0 3 1009.8 - 0.0 - - - - - - -
12/10:30pm 23.0 W 4 6 1009.8 - 0.0 - - - - - - -
12/10:00pm 23.3 W 1 4 1009.7 - 0.0 - - - - - - -
12/09:30pm 23.5 W 4 7 1009.4 - 0.0 - - - - - - -
12/09:00pm 23.9 WSW 5 7 1009.2 - 0.0 - - - - - - -
12/08:30pm 24.3 W 3 6 1009.0 - 0.0 - - - - - - -
12/08:00pm 24.9 CALM 0 0 1008.7 - 0.0 - - - - - - -
12/07:30pm 25.8 CALM 0 0 1008.3 - 0.0 - - - - - - -
12/07:00pm 26.8 CALM 0 0 1008.0 - 0.0 - - - - - - -
12/06:30pm 27.8 CALM 0 0 1007.8 - 0.0 - - - - - - -
12/06:00pm 28.9 S 2 5 1007.3 - 0.0 - - - - - - -
12/05:30pm 29.5 SE 5 7 1007.3 - 0.0 - - - - - - -
12/05:00pm 30.3 SE 7 10 1007.0 - 0.0 - - - - - - -
12/04:30pm 30.6 SSE 7 13 1006.7 - 0.0 - - - - - - -
12/04:00pm 31.2 SE 8 12 1006.5 - 0.0 - - - - - - -
12/03:30pm 31.2 SE 8 12 1006.6 - 0.0 - - - - - - -
12/03:00pm 31.1 ESE 8 12 1006.6 - 0.0 - - - - - - -
12/02:30pm 31.2 ESE 9 14 1007.0 - 0.0 - - - - - - -
12/02:00pm 31.4 ESE 7 11 1007.3 - 0.0 - - - - - - -
12/01:30pm 31.2 ESE 7 11 1007.6 - 0.0 - - - - - - -
12/01:00pm 31.0 ESE 6 11 1007.9 - 0.0 - - - - - - -
12/12:30pm 30.7 ESE 8 13 1008.6 - 0.0 - - - - - - -
12/12:00pm 31.3 ESE 7 11 1009.1 - 0.0 - - - - - - -
12/11:30am 31.1 ESE 6 9 1009.6 - 0.0 - - - - - - -
12/11:00am 30.6 ESE 7 10 1009.9 - 0.0 - - - - - - -
12/10:30am 30.1 S 7 9 1010.1 - 0.0 - - - - - - -
12/10:00am 29.8 SE 4 7 1010.3 - 0.0 - - - - - - -
12/09:30am 29.6 SE 4 8 1010.6 - 0.0 - - - - - - -
12/09:00am 28.5 SW 1 5 1010.7 - 0.0 - - - - - - -
12/08:30am 27.0 WSW 4 6 1010.8 - 0.0 - - - - - - -
12/08:00am 25.3 WSW 5 6 1010.5 - 0.0 - - - - - - -
12/07:30am 23.8 W 4 6 1010.4 - 0.0 - - - - - - -
12/07:00am 22.7 W 3 5 1010.1 - 0.0 - - - - - - -
12/06:30am 22.3 CALM 0 3 1009.7 - 0.0 - - - - - - -
12/06:00am 22.4 WSW 5 7 1009.3 - 0.0 - - - - - - -
12/05:30am 22.5 W 3 5 1009.2 - 0.0 - - - - - - -
12/05:00am 22.6 W 3 5 1009.0 - 0.0 - - - - - - -
12/04:30am 22.7 WSW 5 6 1008.7 - 0.0 - - - - - - -
12/04:00am 22.9 W 3 6 1008.6 - 0.0 - - - - - - -
12/03:30am 23.2 WSW 6 7 1008.5 - 0.0 - - - - - - -
12/03:00am 23.3 WSW 5 6 1008.2 - 0.0 - - - - - - -
12/02:30am 23.5 WSW 5 6 1008.5 - 0.0 - - - - - - -
12/02:00am 23.6 WSW 5 7 1008.5 - 0.0 - - - - - - -
12/01:30am 23.8 WSW 3 6 1008.9 - 0.0 - - - - - - -
12/01:00am 24.1 WSW 4 6 1009.0 - 0.0 - - - - - - -
12/12:30am 24.3 CALM 0 0 1009.3 - 0.0 - - - - - - -
12/12:00am 24.3 CALM 0 0 1009.5 - 0.0 - - - - - - -
 
Date/Time
EST
Temp

°C
Wind Pressure Rain
since 9am
mm
Weather Cloud Vis
km
Sea
Height
m
Swell
Dir
 
Speed
knots
Gust
knots
hPa Trend Height
m
Period
s
Dir
11/11:30pm 24.4 W 1 6 1009.8 - 0.0 - - - - - - -
11/11:00pm 24.6 W 3 4 1010.0 - 0.0 - - - - - - -

Other Formats:

Comma delimited format used in spreadsheet applications
http://www.bom.gov.au/fwo/IDQ60701/IDQ60701.95292.axf

JavaScript Object Notation format (JSON) in row-major order
http://www.bom.gov.au/fwo/IDQ60701/IDQ60701.95292.json